Neerslag & Bliksem

Reclame

Sneeuwradar

Het weer

[Source: ADDS]
METAR
EBBR 241850Z 30005KT 9999 SCT036 BKN046 05/02 Q1020 NOSIG =
TAF
EBBR 241701Z 2418/2524 20010KT 9999 FEW020 =
SR / SS: 06:35 / 17:15 UTC (Brussels 2017-02-24)
Go to top